createdAt,value
2022-11-30T00:00:59.374Z,100.00
2022-11-30T00:03:26.206Z,100.00
2022-11-30T00:05:52.616Z,100.00
2022-11-30T00:08:19.126Z,100.00
2022-11-30T00:10:45.450Z,100.00
2022-11-30T00:13:11.948Z,100.00
2022-11-30T00:15:39.183Z,100.00
2022-11-30T00:18:05.634Z,100.00
2022-11-30T00:20:32.385Z,100.00
2022-11-30T00:22:58.762Z,100.00
2022-11-30T00:25:25.429Z,100.00
2022-11-30T00:27:52.385Z,100.00
2022-11-30T00:30:18.837Z,100.00
2022-11-30T00:32:45.290Z,100.00
2022-11-30T00:35:11.743Z,100.00
2022-11-30T00:37:38.051Z,100.00
2022-11-30T00:40:06.151Z,100.00
2022-11-30T00:42:32.546Z,100.00
2022-11-30T00:44:58.933Z,100.00
2022-11-30T00:47:27.199Z,100.00
2022-11-30T00:49:53.532Z,100.00
2022-11-30T00:52:19.833Z,100.00
2022-11-30T00:54:46.475Z,100.00
2022-11-30T00:57:12.956Z,100.00
2022-11-30T00:59:39.402Z,100.00
2022-11-30T01:02:05.769Z,100.00
2022-11-30T01:04:32.134Z,100.00
2022-11-30T01:06:58.487Z,100.00
2022-11-30T01:09:24.798Z,100.00
2022-11-30T01:11:51.126Z,100.00
2022-11-30T01:14:17.602Z,100.00
2022-11-30T01:16:43.996Z,100.00
2022-11-30T01:19:10.689Z,100.00
2022-11-30T01:21:37.061Z,100.00
2022-11-30T01:24:03.748Z,100.00
2022-11-30T01:26:30.073Z,100.00
2022-11-30T01:28:56.573Z,100.00
2022-11-30T01:31:24.546Z,100.00
2022-11-30T01:33:52.933Z,100.00
2022-11-30T01:36:22.053Z,100.00
2022-11-30T01:38:50.800Z,100.00
2022-11-30T01:41:24.445Z,100.00
2022-11-30T01:43:53.355Z,100.00
2022-11-30T01:46:32.090Z,100.00
2022-11-30T01:49:05.023Z,100.00
2022-11-30T01:51:40.214Z,100.00
2022-11-30T01:54:10.432Z,100.00
2022-11-30T01:56:41.551Z,100.00
2022-11-30T01:59:09.205Z,100.00
2022-11-30T02:01:35.739Z,100.00
2022-11-30T02:04:23.343Z,100.00
2022-11-30T02:06:50.133Z,100.00
2022-11-30T02:09:19.171Z,100.00
2022-11-30T02:11:46.142Z,100.00
2022-11-30T02:14:33.941Z,100.00
2022-11-30T02:17:26.227Z,100.00
2022-11-30T02:19:55.583Z,100.00
2022-11-30T02:22:52.407Z,100.00
2022-11-30T02:25:54.212Z,100.00
2022-11-30T02:28:47.983Z,100.00
2022-11-30T02:31:20.266Z,100.00
2022-11-30T02:33:49.103Z,100.00
2022-11-30T02:36:16.011Z,100.00
2022-11-30T02:38:42.546Z,100.00
2022-11-30T02:41:08.925Z,100.00
2022-11-30T02:43:35.742Z,100.00
2022-11-30T02:46:28.568Z,100.00
2022-11-30T02:49:20.202Z,100.00
2022-11-30T02:51:50.275Z,100.00
2022-11-30T02:54:18.296Z,100.00
2022-11-30T02:56:44.592Z,100.00
2022-11-30T02:59:11.495Z,100.00
2022-11-30T03:01:39.716Z,100.00
2022-11-30T03:04:06.053Z,100.00
2022-11-30T03:06:32.419Z,100.00
2022-11-30T03:08:58.769Z,100.00
2022-11-30T03:11:25.777Z,100.00
2022-11-30T03:13:52.165Z,100.00
2022-11-30T03:16:18.600Z,100.00
2022-11-30T03:18:44.984Z,100.00
2022-11-30T03:21:13.042Z,100.00
2022-11-30T03:23:40.092Z,100.00
2022-11-30T03:26:08.490Z,100.00
2022-11-30T03:28:38.076Z,100.00
2022-11-30T03:31:04.940Z,100.00
2022-11-30T03:33:31.412Z,100.00
2022-11-30T03:36:02.458Z,100.00
2022-11-30T03:38:29.076Z,100.00
2022-11-30T03:41:07.768Z,100.00
2022-11-30T03:43:34.525Z,100.00
2022-11-30T03:46:01.018Z,100.00
2022-11-30T03:48:27.638Z,100.00
2022-11-30T03:50:54.078Z,100.00
2022-11-30T03:53:22.766Z,100.00
2022-11-30T03:55:54.462Z,100.00
2022-11-30T03:58:21.677Z,100.00
2022-11-30T04:00:48.046Z,100.00
2022-11-30T04:03:15.020Z,100.00
2022-11-30T04:05:41.585Z,100.00
2022-11-30T04:08:07.948Z,100.00
2022-11-30T04:10:34.653Z,100.00
2022-11-30T04:13:01.009Z,100.00
2022-11-30T04:15:27.453Z,100.00
2022-11-30T04:17:53.813Z,100.00
2022-11-30T04:20:20.203Z,100.00
2022-11-30T04:22:46.600Z,100.00
2022-11-30T04:25:12.945Z,100.00
2022-11-30T04:27:39.344Z,100.00
2022-11-30T04:30:06.505Z,100.00
2022-11-30T04:32:32.899Z,100.00
2022-11-30T04:34:59.194Z,100.00
2022-11-30T04:37:25.525Z,100.00
2022-11-30T04:39:51.888Z,100.00
2022-11-30T04:42:18.241Z,100.00
2022-11-30T04:44:44.832Z,100.00
2022-11-30T04:47:11.365Z,100.00
2022-11-30T04:49:37.753Z,100.00
2022-11-30T04:52:04.088Z,100.00
2022-11-30T04:54:30.544Z,100.00
2022-11-30T04:56:56.965Z,100.00
2022-11-30T04:59:23.315Z,100.00
2022-11-30T05:01:49.680Z,100.00
2022-11-30T05:04:16.241Z,100.00
2022-11-30T05:06:42.634Z,100.00
2022-11-30T05:09:08.953Z,100.00
2022-11-30T05:11:35.354Z,100.00
2022-11-30T05:14:01.779Z,100.00
2022-11-30T05:16:28.232Z,100.00
2022-11-30T05:18:54.643Z,100.00
2022-11-30T05:21:21.052Z,100.00
2022-11-30T05:23:48.684Z,100.00
2022-11-30T05:26:15.813Z,100.00
2022-11-30T05:28:42.168Z,100.00
2022-11-30T05:31:08.623Z,100.00
2022-11-30T05:33:35.021Z,100.00
2022-11-30T05:36:03.492Z,100.00
2022-11-30T05:38:32.239Z,100.00
2022-11-30T05:41:02.341Z,100.00
2022-11-30T05:43:28.670Z,100.00
2022-11-30T05:46:02.543Z,100.00
2022-11-30T05:48:28.974Z,100.00
2022-11-30T05:50:55.345Z,100.00
2022-11-30T05:53:21.781Z,100.00
2022-11-30T05:55:48.149Z,100.00
2022-11-30T05:58:14.532Z,100.00
2022-11-30T06:00:40.873Z,100.00
2022-11-30T06:03:07.307Z,100.00
2022-11-30T06:05:36.464Z,100.00
2022-11-30T06:08:02.909Z,100.00
2022-11-30T06:10:29.345Z,100.00
2022-11-30T06:12:55.708Z,100.00
2022-11-30T06:15:22.074Z,100.00
2022-11-30T06:17:48.463Z,100.00
2022-11-30T06:20:14.898Z,100.00
2022-11-30T06:22:44.949Z,100.00
2022-11-30T06:25:11.292Z,100.00
2022-11-30T06:27:37.678Z,100.00
2022-11-30T06:30:04.601Z,100.00
2022-11-30T06:32:30.993Z,100.00
2022-11-30T06:34:57.305Z,100.00
2022-11-30T06:37:23.658Z,100.00
2022-11-30T06:40:05.877Z,100.00
2022-11-30T06:42:35.389Z,100.00
2022-11-30T06:45:02.200Z,100.00
2022-11-30T06:47:28.567Z,100.00
2022-11-30T06:49:54.998Z,100.00
2022-11-30T06:52:21.558Z,100.00
2022-11-30T06:54:48.059Z,100.00
2022-11-30T06:57:14.600Z,100.00
2022-11-30T06:59:44.141Z,100.00
2022-11-30T07:02:18.289Z,100.00
2022-11-30T07:04:45.459Z,100.00
2022-11-30T07:07:12.210Z,100.00
2022-11-30T07:09:38.598Z,100.00
2022-11-30T07:12:05.468Z,100.00
2022-11-30T07:14:31.825Z,100.00
2022-11-30T07:16:58.138Z,100.00
2022-11-30T07:19:25.101Z,100.00
2022-11-30T07:21:51.461Z,100.00
2022-11-30T07:24:36.390Z,100.00
2022-11-30T07:27:03.817Z,100.00
2022-11-30T07:29:30.151Z,100.00
2022-11-30T07:31:56.671Z,100.00
2022-11-30T07:34:23.197Z,100.00
2022-11-30T07:36:49.894Z,100.00
2022-11-30T07:39:16.369Z,100.00
2022-11-30T07:41:42.982Z,100.00
2022-11-30T07:44:09.818Z,100.00
2022-11-30T07:46:37.090Z,100.00
2022-11-30T07:49:04.376Z,100.00
2022-11-30T07:51:30.682Z,100.00
2022-11-30T07:53:57.541Z,100.00
2022-11-30T07:56:24.962Z,100.00
2022-11-30T07:58:57.180Z,100.00
2022-11-30T08:01:25.505Z,100.00
2022-11-30T08:03:53.157Z,100.00
2022-11-30T08:06:22.530Z,100.00
2022-11-30T08:08:51.512Z,100.00
2022-11-30T08:11:24.184Z,100.00
2022-11-30T08:13:50.742Z,100.00
2022-11-30T08:16:19.585Z,100.00
2022-11-30T08:18:46.047Z,100.00
2022-11-30T08:21:13.806Z,100.00
2022-11-30T08:23:45.604Z,100.00
2022-11-30T08:26:22.045Z,100.00
2022-11-30T08:28:50.073Z,100.00
2022-11-30T08:31:31.071Z,100.00
2022-11-30T08:34:03.771Z,100.00
2022-11-30T08:36:31.038Z,100.00
2022-11-30T08:38:59.020Z,100.00
2022-11-30T08:41:25.978Z,100.00
2022-11-30T08:43:53.334Z,100.00
2022-11-30T08:46:49.789Z,100.00
2022-11-30T08:49:24.685Z,100.00
2022-11-30T08:57:31.634Z,100.00
2022-11-30T08:59:58.124Z,100.00
2022-11-30T09:02:24.593Z,100.00
2022-11-30T09:04:53.364Z,100.00
2022-11-30T09:07:20.089Z,100.00
2022-11-30T09:09:46.753Z,100.00
2022-11-30T09:12:13.102Z,100.00
2022-11-30T09:14:39.504Z,100.00
2022-11-30T09:17:05.899Z,100.00
2022-11-30T09:19:32.292Z,100.00
2022-11-30T09:21:58.635Z,100.00
2022-11-30T09:24:25.382Z,100.00
2022-11-30T09:26:56.055Z,100.00
2022-11-30T09:29:22.506Z,100.00
2022-11-30T09:31:49.271Z,100.00
2022-11-30T09:34:15.715Z,100.00
2022-11-30T09:36:42.154Z,100.00
2022-11-30T09:39:10.473Z,100.00
2022-11-30T09:41:55.162Z,100.00
2022-11-30T09:44:51.039Z,100.00
2022-11-30T09:47:42.107Z,100.00
2022-11-30T09:50:15.047Z,100.00
2022-11-30T09:52:46.978Z,100.00
2022-11-30T09:55:21.473Z,100.00
2022-11-30T09:57:54.979Z,100.00
2022-11-30T10:00:23.712Z,100.00
2022-11-30T10:02:52.003Z,100.00
2022-11-30T10:05:27.093Z,100.00
2022-11-30T10:08:38.611Z,100.00
2022-11-30T10:11:28.845Z,100.00
2022-11-30T10:14:09.796Z,100.00
2022-11-30T10:16:54.372Z,100.00
2022-11-30T10:19:49.016Z,100.00
2022-11-30T10:22:32.037Z,100.00
2022-11-30T10:25:16.759Z,100.00
2022-11-30T10:27:56.493Z,100.00
2022-11-30T10:30:26.667Z,99.52
2022-11-30T10:32:55.886Z,95.80
2022-11-30T10:35:37.034Z,98.32
2022-11-30T10:38:11.836Z,97.77
2022-11-30T10:40:47.641Z,92.53
2022-11-30T10:43:40.920Z,88.32
2022-11-30T10:46:19.449Z,83.72
2022-11-30T10:49:02.664Z,79.08
2022-11-30T10:51:29.331Z,74.33
2022-11-30T10:53:57.902Z,74.49
2022-11-30T10:56:25.727Z,76.08
2022-11-30T10:59:03.800Z,79.37
2022-11-30T11:01:37.612Z,79.82
2022-11-30T11:04:09.252Z,78.90
2022-11-30T11:06:36.376Z,79.66
2022-11-30T11:09:28.968Z,75.59
2022-11-30T11:11:58.148Z,73.00
2022-11-30T11:14:26.282Z,75.73
2022-11-30T11:17:04.212Z,75.94
2022-11-30T11:19:38.435Z,77.75
2022-11-30T11:22:20.422Z,79.51
2022-11-30T11:24:48.627Z,79.10
2022-11-30T11:27:24.630Z,80.78
2022-11-30T11:30:02.843Z,80.98
2022-11-30T11:32:30.367Z,83.72
2022-11-30T11:34:57.829Z,87.64
2022-11-30T11:37:33.676Z,85.11
2022-11-30T11:40:02.308Z,86.80
2022-11-30T11:42:36.874Z,89.35
2022-11-30T11:45:04.546Z,88.42
2022-11-30T11:47:43.546Z,87.01
2022-11-30T11:50:12.982Z,89.32
2022-11-30T11:52:39.448Z,90.07
2022-11-30T11:55:13.676Z,89.99
2022-11-30T11:57:53.364Z,84.67
2022-11-30T12:00:23.288Z,79.08
2022-11-30T12:03:08.438Z,76.91
2022-11-30T12:06:04.033Z,78.35
2022-11-30T12:08:45.569Z,76.93
2022-11-30T12:11:17.737Z,81.59
2022-11-30T12:13:45.765Z,82.04
2022-11-30T12:16:12.139Z,85.09
2022-11-30T12:18:53.513Z,86.72
2022-11-30T12:21:35.059Z,81.14
2022-11-30T12:24:23.033Z,77.04
2022-11-30T12:27:21.502Z,73.26
2022-11-30T12:30:09.993Z,72.38
2022-11-30T12:33:30.179Z,73.22
2022-11-30T12:36:12.891Z,73.09
2022-11-30T12:38:47.774Z,75.23
2022-11-30T12:41:41.723Z,77.90
2022-11-30T12:44:20.855Z,73.45
2022-11-30T12:46:55.472Z,76.74
2022-11-30T12:50:05.663Z,80.77
2022-11-30T12:52:44.426Z,86.82
2022-11-30T12:55:25.708Z,87.79
2022-11-30T12:58:04.602Z,81.49
2022-11-30T13:00:45.704Z,76.45
2022-11-30T13:03:18.333Z,74.63
2022-11-30T13:05:54.355Z,77.62
2022-11-30T13:08:49.537Z,82.41
2022-11-30T13:11:22.704Z,86.82
2022-11-30T13:13:54.052Z,89.78
2022-11-30T13:16:23.465Z,90.40
2022-11-30T13:19:02.080Z,90.52
2022-11-30T13:21:56.262Z,91.32
2022-11-30T13:24:33.993Z,91.96
2022-11-30T13:27:24.289Z,92.15
2022-11-30T13:30:18.694Z,92.32
2022-11-30T13:33:00.304Z,93.86
2022-11-30T13:35:29.739Z,94.14
2022-11-30T13:38:35.913Z,94.16
2022-11-30T13:41:05.366Z,93.54
2022-11-30T13:43:36.721Z,92.61
2022-11-30T13:46:23.468Z,92.25
2022-11-30T13:49:16.202Z,93.00
2022-11-30T13:51:42.724Z,93.34
2022-11-30T13:54:44.003Z,94.25
2022-11-30T13:57:28.728Z,94.40
2022-11-30T14:00:00.079Z,95.07
2022-11-30T14:02:32.654Z,94.79
2022-11-30T14:05:20.144Z,94.07
2022-11-30T14:08:06.542Z,94.91
2022-11-30T14:11:31.768Z,95.54
2022-11-30T14:13:58.145Z,95.42
2022-11-30T14:16:27.669Z,95.62
2022-11-30T14:18:56.056Z,95.81
2022-11-30T14:21:28.523Z,95.53
2022-11-30T14:24:02.045Z,95.88
2022-11-30T14:26:30.677Z,95.06
2022-11-30T14:29:16.634Z,95.02
2022-11-30T14:31:55.144Z,95.26
2022-11-30T14:34:27.222Z,94.95
2022-11-30T14:37:02.393Z,94.92
2022-11-30T14:39:36.963Z,94.72
2022-11-30T14:42:05.142Z,95.22
2022-11-30T14:44:36.386Z,95.12
2022-11-30T14:47:16.697Z,94.74
2022-11-30T14:49:47.881Z,95.22
2022-11-30T14:52:34.774Z,95.07
2022-11-30T14:55:22.838Z,95.38
2022-11-30T14:57:56.901Z,95.77
2022-11-30T15:00:23.349Z,96.31
2022-11-30T15:02:49.969Z,96.10
2022-11-30T15:05:20.757Z,96.49
2022-11-30T15:07:47.651Z,96.30
2022-11-30T15:10:18.409Z,96.83
2022-11-30T15:12:45.530Z,96.76
2022-11-30T15:15:18.855Z,97.54
2022-11-30T15:17:52.761Z,97.51
2022-11-30T15:20:24.426Z,97.73
2022-11-30T15:22:50.800Z,98.28
2022-11-30T15:25:17.461Z,98.58
2022-11-30T15:27:44.488Z,98.92
2022-11-30T15:30:16.223Z,99.07
2022-11-30T15:32:49.350Z,99.46
2022-11-30T15:35:34.168Z,99.90
2022-11-30T15:38:10.223Z,99.73
2022-11-30T15:40:36.541Z,99.54
2022-11-30T15:43:03.040Z,99.67
2022-11-30T15:45:36.115Z,99.82
2022-11-30T15:48:03.781Z,99.53
2022-11-30T15:50:32.537Z,99.96
2022-11-30T15:53:20.210Z,99.54
2022-11-30T15:55:52.104Z,99.76
2022-11-30T15:58:45.411Z,99.62
2022-11-30T16:01:19.227Z,100.00
2022-11-30T16:04:03.908Z,100.00
2022-11-30T16:06:48.103Z,100.00
2022-11-30T16:09:33.303Z,100.00
2022-11-30T16:12:02.001Z,100.00
2022-11-30T16:14:28.623Z,100.00
2022-11-30T16:16:55.665Z,100.00
2022-11-30T16:19:22.847Z,100.00
2022-11-30T16:21:49.903Z,100.00
2022-11-30T16:24:16.898Z,99.93
2022-11-30T16:26:50.996Z,99.83
2022-11-30T16:29:17.631Z,100.00
2022-11-30T16:31:43.977Z,100.00
2022-11-30T16:34:11.698Z,100.00
2022-11-30T16:36:38.807Z,100.00
2022-11-30T16:39:05.214Z,100.00
2022-11-30T16:41:31.617Z,100.00
2022-11-30T16:43:57.937Z,100.00
2022-11-30T16:46:26.585Z,100.00
2022-11-30T16:48:53.076Z,100.00
2022-11-30T16:51:23.915Z,100.00
2022-11-30T16:53:50.773Z,100.00
2022-11-30T16:56:17.511Z,100.00
2022-11-30T16:58:44.484Z,100.00
2022-11-30T17:01:45.676Z,100.00
2022-11-30T17:04:21.065Z,100.00
2022-11-30T17:06:50.645Z,100.00
2022-11-30T17:09:20.501Z,100.00
2022-11-30T17:11:50.324Z,100.00
2022-11-30T17:14:17.199Z,100.00
2022-11-30T17:16:43.730Z,100.00
2022-11-30T17:19:10.253Z,100.00
2022-11-30T17:21:38.869Z,100.00
2022-11-30T17:24:06.423Z,100.00
2022-11-30T17:26:32.856Z,100.00
2022-11-30T17:28:59.305Z,100.00
2022-11-30T17:31:25.671Z,100.00
2022-11-30T17:33:52.073Z,100.00
2022-11-30T17:36:19.135Z,100.00
2022-11-30T17:38:45.757Z,100.00
2022-11-30T17:41:18.959Z,100.00
2022-11-30T17:43:46.552Z,100.00
2022-11-30T17:46:15.763Z,100.00
2022-11-30T17:48:42.698Z,100.00
2022-11-30T17:51:10.107Z,100.00
2022-11-30T17:53:40.896Z,100.00
2022-11-30T17:56:10.145Z,100.00
2022-11-30T17:58:43.919Z,100.00
2022-11-30T18:01:16.467Z,100.00
2022-11-30T18:03:43.230Z,100.00
2022-11-30T18:06:09.598Z,100.00
2022-11-30T18:08:37.833Z,100.00
2022-11-30T18:11:20.114Z,100.00
2022-11-30T18:13:48.079Z,100.00
2022-11-30T18:16:18.375Z,100.00
2022-11-30T18:18:48.221Z,100.00
2022-11-30T18:21:17.885Z,100.00
2022-11-30T18:23:44.728Z,100.00
2022-11-30T18:26:14.291Z,100.00
2022-11-30T18:28:40.970Z,100.00
2022-11-30T18:31:07.388Z,100.00
2022-11-30T18:33:36.268Z,100.00
2022-11-30T18:36:06.152Z,100.00
2022-11-30T18:38:37.518Z,100.00
2022-11-30T18:41:05.257Z,100.00
2022-11-30T18:43:33.326Z,100.00
2022-11-30T18:46:07.148Z,100.00
2022-11-30T18:48:34.217Z,100.00
2022-11-30T18:51:11.395Z,100.00
2022-11-30T18:53:37.743Z,100.00
2022-11-30T18:56:09.205Z,100.00
2022-11-30T18:58:35.541Z,100.00
2022-11-30T19:01:21.197Z,100.00
2022-11-30T19:03:55.739Z,100.00
2022-11-30T19:06:24.828Z,100.00
2022-11-30T19:08:51.382Z,100.00
2022-11-30T19:11:17.823Z,100.00
2022-11-30T19:13:44.910Z,100.00
2022-11-30T19:16:14.277Z,100.00
2022-11-30T19:18:41.068Z,100.00
2022-11-30T19:21:13.197Z,100.00
2022-11-30T19:23:40.110Z,100.00
2022-11-30T19:26:08.690Z,100.00
2022-11-30T19:28:36.085Z,100.00
2022-11-30T19:31:17.707Z,100.00
2022-11-30T19:33:46.852Z,100.00
2022-11-30T19:36:22.358Z,100.00
2022-11-30T19:38:51.241Z,100.00
2022-11-30T19:41:19.434Z,100.00
2022-11-30T19:43:52.490Z,100.00
2022-11-30T19:46:21.433Z,100.00
2022-11-30T19:48:47.837Z,100.00
2022-11-30T19:51:18.401Z,100.00
2022-11-30T19:53:45.245Z,100.00
2022-11-30T19:56:17.134Z,100.00
2022-11-30T19:58:45.494Z,100.00
2022-11-30T20:01:19.284Z,100.00
2022-11-30T20:03:45.637Z,100.00
2022-11-30T20:06:12.384Z,100.00
2022-11-30T20:08:39.151Z,100.00
2022-11-30T20:11:09.757Z,100.00
2022-11-30T20:13:36.431Z,100.00
2022-11-30T20:16:07.915Z,100.00
2022-11-30T20:18:34.802Z,100.00
2022-11-30T20:21:18.781Z,100.00
2022-11-30T20:23:46.992Z,100.00
2022-11-30T20:26:18.054Z,100.00
2022-11-30T20:28:45.019Z,100.00
2022-11-30T20:31:13.217Z,100.00
2022-11-30T20:33:39.689Z,100.00
2022-11-30T20:36:08.335Z,100.00
2022-11-30T20:38:35.056Z,100.00
2022-11-30T20:41:01.836Z,100.00
2022-11-30T20:43:28.442Z,100.00
2022-11-30T20:45:54.890Z,100.00
2022-11-30T20:48:21.747Z,100.00
2022-11-30T20:51:13.994Z,100.00
2022-11-30T20:53:34.540Z,100.00
2022-11-30T20:56:00.864Z,100.00
2022-11-30T20:58:27.303Z,100.00
2022-11-30T21:00:53.695Z,100.00
2022-11-30T21:03:20.090Z,100.00
2022-11-30T21:05:46.429Z,100.00
2022-11-30T21:08:12.723Z,100.00
2022-11-30T21:10:39.976Z,100.00
2022-11-30T21:13:06.613Z,100.00
2022-11-30T21:15:33.002Z,100.00
2022-11-30T21:17:59.398Z,100.00
2022-11-30T21:20:25.754Z,100.00
2022-11-30T21:22:52.266Z,100.00
2022-11-30T21:25:18.631Z,100.00
2022-11-30T21:27:45.002Z,100.00
2022-11-30T21:30:11.966Z,100.00
2022-11-30T21:32:38.596Z,100.00
2022-11-30T21:35:05.409Z,100.00
2022-11-30T21:37:31.906Z,100.00
2022-11-30T21:39:58.208Z,100.00
2022-11-30T21:42:24.578Z,100.00
2022-11-30T21:44:51.028Z,100.00
2022-11-30T21:47:17.534Z,100.00
2022-11-30T21:49:43.915Z,100.00
2022-11-30T21:52:10.324Z,100.00
2022-11-30T21:54:36.641Z,100.00
2022-11-30T21:57:03.120Z,100.00
2022-11-30T21:59:29.640Z,100.00
2022-11-30T22:01:56.014Z,100.00
2022-11-30T22:04:22.442Z,100.00
2022-11-30T22:06:48.804Z,100.00
2022-11-30T22:09:16.721Z,100.00
2022-11-30T22:11:45.150Z,100.00
2022-11-30T22:14:15.437Z,100.00
2022-11-30T22:16:41.864Z,100.00
2022-11-30T22:19:08.461Z,100.00
2022-11-30T22:21:35.483Z,100.00
2022-11-30T22:24:09.097Z,100.00
2022-11-30T22:26:37.374Z,100.00
2022-11-30T22:29:07.526Z,100.00
2022-11-30T22:31:39.604Z,100.00
2022-11-30T22:34:06.962Z,100.00
2022-11-30T22:36:35.153Z,100.00
2022-11-30T22:39:07.740Z,100.00
2022-11-30T22:41:34.095Z,100.00
2022-11-30T22:44:00.869Z,100.00
2022-11-30T22:46:30.778Z,100.00
2022-11-30T22:49:02.220Z,100.00
2022-11-30T22:51:30.981Z,100.00
2022-11-30T22:53:57.977Z,100.00
2022-11-30T22:56:32.971Z,100.00
2022-11-30T22:59:00.771Z,100.00
2022-11-30T23:01:30.154Z,100.00
2022-11-30T23:04:01.805Z,100.00
2022-11-30T23:06:28.480Z,100.00
2022-11-30T23:08:54.885Z,100.00
2022-11-30T23:11:25.647Z,100.00
2022-11-30T23:13:52.255Z,100.00
2022-11-30T23:16:19.323Z,100.00
2022-11-30T23:18:55.435Z,100.00
2022-11-30T23:21:26.109Z,100.00
2022-11-30T23:23:54.394Z,100.00
2022-11-30T23:26:26.994Z,100.00
2022-11-30T23:28:55.776Z,100.00
2022-11-30T23:31:34.080Z,100.00
2022-11-30T23:34:02.366Z,100.00
2022-11-30T23:36:28.749Z,100.00
2022-11-30T23:39:00.934Z,100.00
2022-11-30T23:41:27.869Z,100.00
2022-11-30T23:43:54.572Z,100.00
2022-11-30T23:46:21.612Z,100.00
2022-11-30T23:48:48.119Z,100.00
2022-11-30T23:51:14.641Z,100.00
2022-11-30T23:53:40.959Z,100.00
2022-11-30T23:56:11.786Z,100.00
2022-11-30T23:58:39.582Z,100.00
